sensor_id;sensor_type;location;lat;lon;timestamp;pressure;altitude;pressure_sealevel;temperature;humidity
17781;BME280;8498;52.516;13.790;2023-04-10T00:02:03;102111.72;;;4.98;92.02
17781;BME280;8498;52.516;13.790;2023-04-10T00:07:26;102115.38;;;4.91;91.76
17781;BME280;8498;52.516;13.790;2023-04-10T00:12:48;102113.84;;;4.81;92.29
17781;BME280;8498;52.516;13.790;2023-04-10T00:18:12;102111.16;;;4.83;92.25
17781;BME280;8498;52.516;13.790;2023-04-10T00:23:35;102108.56;;;4.81;91.79
17781;BME280;8498;52.516;13.790;2023-04-10T00:28:57;102102.53;;;4.77;91.36
17781;BME280;8498;52.516;13.790;2023-04-10T00:34:20;102103.31;;;4.81;90.95
17781;BME280;8498;52.516;13.790;2023-04-10T00:39:44;102091.91;;;4.80;90.88
17781;BME280;8498;52.516;13.790;2023-04-10T00:45:07;102087.72;;;4.72;90.95
17781;BME280;8498;52.516;13.790;2023-04-10T00:50:29;102085.31;;;4.61;91.67
17781;BME280;8498;52.516;13.790;2023-04-10T00:55:53;102097.63;;;4.59;91.71
17781;BME280;8498;52.516;13.790;2023-04-10T01:01:15;102082.88;;;4.51;91.46
17781;BME280;8498;52.516;13.790;2023-04-10T01:06:58;102075.03;;;4.49;91.23
17781;BME280;8498;52.516;13.790;2023-04-10T01:18:24;102074.16;;;4.49;90.46
17781;BME280;8498;52.516;13.790;2023-04-10T01:29:46;102068.47;;;4.27;90.87
17781;BME280;8498;52.516;13.790;2023-04-10T01:35:14;102067.53;;;4.29;90.48
17781;BME280;8498;52.516;13.790;2023-04-10T01:40:38;102064.84;;;4.32;90.61
17781;BME280;8498;52.516;13.790;2023-04-10T01:46:02;102065.03;;;4.25;90.23
17781;BME280;8498;52.516;13.790;2023-04-10T01:51:26;102063.53;;;4.12;90.71
17781;BME280;8498;52.516;13.790;2023-04-10T01:56:49;102068.00;;;4.05;91.64
17781;BME280;8498;52.516;13.790;2023-04-10T02:02:12;102066.31;;;4.04;92.26
17781;BME280;8498;52.516;13.790;2023-04-10T02:07:41;102061.00;;;4.05;91.26
17781;BME280;8498;52.516;13.790;2023-04-10T02:13:06;102064.84;;;3.88;91.71
17781;BME280;8498;52.516;13.790;2023-04-10T02:18:33;102074.41;;;3.92;91.62
17781;BME280;8498;52.516;13.790;2023-04-10T02:23:56;102065.63;;;3.93;91.44
17781;BME280;8498;52.516;13.790;2023-04-10T02:29:22;102077.16;;;3.84;91.04
17781;BME280;8498;52.516;13.790;2023-04-10T02:34:44;102074.75;;;3.74;91.34
17781;BME280;8498;52.516;13.790;2023-04-10T02:40:06;102064.25;;;3.74;91.36
17781;BME280;8498;52.516;13.790;2023-04-10T02:45:40;102064.34;;;3.67;90.76
17781;BME280;8498;52.516;13.790;2023-04-10T02:51:06;102084.50;;;3.65;91.33
17781;BME280;8498;52.516;13.790;2023-04-10T02:56:32;102084.59;;;3.61;91.20
17781;BME280;8498;52.516;13.790;2023-04-10T03:01:55;102096.16;;;3.52;90.91
17781;BME280;8498;52.516;13.790;2023-04-10T03:07:18;102090.84;;;3.54;91.31
17781;BME280;8498;52.516;13.790;2023-04-10T03:12:40;102085.66;;;3.49;92.12
17781;BME280;8498;52.516;13.790;2023-04-10T03:18:03;102092.75;;;3.43;91.70
17781;BME280;8498;52.516;13.790;2023-04-10T03:23:27;102081.47;;;3.39;91.35
17781;BME280;8498;52.516;13.790;2023-04-10T03:28:51;102091.13;;;3.36;92.28
17781;BME280;8498;52.516;13.790;2023-04-10T03:34:13;102081.63;;;3.28;92.05
17781;BME280;8498;52.516;13.790;2023-04-10T03:39:36;102082.47;;;3.32;91.59
17781;BME280;8498;52.516;13.790;2023-04-10T03:44:58;102086.88;;;3.30;92.14
17781;BME280;8498;52.516;13.790;2023-04-10T03:50:22;102084.44;;;3.16;91.43
17781;BME280;8498;52.516;13.790;2023-04-10T03:55:50;102090.59;;;3.14;91.72
17781;BME280;8498;52.516;13.790;2023-04-10T04:01:17;102076.59;;;3.15;91.67
17781;BME280;8498;52.516;13.790;2023-04-10T04:06:58;102080.97;;;3.14;91.64
17781;BME280;8498;52.516;13.790;2023-04-10T04:12:37;102084.63;;;3.04;91.64
17781;BME280;8498;52.516;13.790;2023-04-10T04:18:18;102084.63;;;3.03;92.04
17781;BME280;8498;52.516;13.790;2023-04-10T04:23:49;102093.41;;;3.02;91.33
17781;BME280;8498;52.516;13.790;2023-04-10T04:29:29;102092.66;;;2.93;92.40
17781;BME280;8498;52.516;13.790;2023-04-10T04:35:06;102093.41;;;3.02;91.67
17781;BME280;8498;52.516;13.790;2023-04-10T04:40:47;102099.47;;;3.07;91.33
17781;BME280;8498;52.516;13.790;2023-04-10T04:46:15;102096.84;;;3.05;91.29
17781;BME280;8498;52.516;13.790;2023-04-10T04:52:04;102101.19;;;3.08;91.39
17781;BME280;8498;52.516;13.790;2023-04-10T04:57:34;102106.44;;;3.09;91.29
17781;BME280;8498;52.516;13.790;2023-04-10T05:03:16;102104.56;;;3.16;91.24
17781;BME280;8498;52.516;13.790;2023-04-10T05:09:11;102101.81;;;3.25;91.20
17781;BME280;8498;52.516;13.790;2023-04-10T05:14:56;102098.28;;;3.26;91.63
17781;BME280;8498;52.516;13.790;2023-04-10T05:20:50;102100.69;;;3.41;91.64
17781;BME280;8498;52.516;13.790;2023-04-10T05:26:33;102093.50;;;3.52;91.55
17781;BME280;8498;52.516;13.790;2023-04-10T05:32:15;102102.00;;;3.66;91.34
17781;BME280;8498;52.516;13.790;2023-04-10T05:37:56;102101.81;;;3.79;91.59
17781;BME280;8498;52.516;13.790;2023-04-10T05:43:28;102105.88;;;3.96;91.54
17781;BME280;8498;52.516;13.790;2023-04-10T05:48:57;102112.50;;;4.16;91.76
17781;BME280;8498;52.516;13.790;2023-04-10T05:54:38;102107.78;;;4.34;91.47
17781;BME280;8498;52.516;13.790;2023-04-10T06:00:10;102089.84;;;4.55;91.51
17781;BME280;8498;52.516;13.790;2023-04-10T06:05:35;102092.78;;;4.81;91.62
17781;BME280;8498;52.516;13.790;2023-04-10T06:11:00;102085.91;;;5.12;92.00
17781;BME280;8498;52.516;13.790;2023-04-10T06:16:24;102086.09;;;5.42;92.73
17781;BME280;8498;52.516;13.790;2023-04-10T06:21:48;102091.38;;;5.76;94.44
17781;BME280;8498;52.516;13.790;2023-04-10T06:27:12;102087.94;;;6.08;95.91
17781;BME280;8498;52.516;13.790;2023-04-10T06:32:34;102081.81;;;6.38;95.97
17781;BME280;8498;52.516;13.790;2023-04-10T06:37:57;102095.31;;;6.58;96.28
17781;BME280;8498;52.516;13.790;2023-04-10T06:43:20;102091.19;;;6.78;95.86
17781;BME280;8498;52.516;13.790;2023-04-10T06:48:44;102080.00;;;6.99;95.95
17781;BME280;8498;52.516;13.790;2023-04-10T06:54:06;102080.34;;;7.16;95.98
17781;BME280;8498;52.516;13.790;2023-04-10T06:59:29;102075.41;;;7.32;94.96
17781;BME280;8498;52.516;13.790;2023-04-10T07:04:52;102074.66;;;7.55;95.39
17781;BME280;8498;52.516;13.790;2023-04-10T07:10:15;102063.97;;;7.84;94.87
17781;BME280;8498;52.516;13.790;2023-04-10T07:15:37;102062.19;;;8.09;94.75
17781;BME280;8498;52.516;13.790;2023-04-10T07:21:00;102055.31;;;8.52;96.04
17781;BME280;8498;52.516;13.790;2023-04-10T07:26:23;102055.09;;;8.81;94.48
17781;BME280;8498;52.516;13.790;2023-04-10T07:31:46;102061.09;;;9.08;94.74
17781;BME280;8498;52.516;13.790;2023-04-10T07:37:09;102062.63;;;9.36;93.44
17781;BME280;8498;52.516;13.790;2023-04-10T07:42:31;102061.44;;;9.65;92.34
17781;BME280;8498;52.516;13.790;2023-04-10T07:47:54;102058.63;;;9.88;90.95
17781;BME280;8498;52.516;13.790;2023-04-10T07:53:17;102053.13;;;9.92;90.44
17781;BME280;8498;52.516;13.790;2023-04-10T07:58:39;102055.72;;;10.14;89.75
17781;BME280;8498;52.516;13.790;2023-04-10T08:04:01;102051.72;;;10.45;88.99
17781;BME280;8498;52.516;13.790;2023-04-10T08:09:27;102037.78;;;10.77;88.34
17781;BME280;8498;52.516;13.790;2023-04-10T08:14:49;102033.34;;;11.14;87.84
17781;BME280;8498;52.516;13.790;2023-04-10T08:20:13;102030.88;;;11.28;86.67
17781;BME280;8498;52.516;13.790;2023-04-10T08:25:35;102019.84;;;11.53;84.81
17781;BME280;8498;52.516;13.790;2023-04-10T08:30:57;102016.09;;;11.74;82.98
17781;BME280;8498;52.516;13.790;2023-04-10T08:36:20;102016.19;;;11.90;82.31
17781;BME280;8498;52.516;13.790;2023-04-10T08:41:42;102019.53;;;12.43;83.30
17781;BME280;8498;52.516;13.790;2023-04-10T08:47:05;102021.44;;;13.04;78.37
17781;BME280;8498;52.516;13.790;2023-04-10T08:52:30;102015.03;;;13.38;75.16
17781;BME280;8498;52.516;13.790;2023-04-10T08:57:55;102019.22;;;12.97;73.51
17781;BME280;8498;52.516;13.790;2023-04-10T09:03:23;102018.25;;;12.98;74.36
17781;BME280;8498;52.516;13.790;2023-04-10T09:08:46;102009.91;;;13.04;73.11
17781;BME280;8498;52.516;13.790;2023-04-10T09:14:23;101995.44;;;13.23;71.44
17781;BME280;8498;52.516;13.790;2023-04-10T09:19:50;101987.97;;;13.44;70.45
17781;BME280;8498;52.516;13.790;2023-04-10T09:25:36;101976.72;;;13.98;69.16
17781;BME280;8498;52.516;13.790;2023-04-10T09:31:00;101972.50;;;14.36;67.40
17781;BME280;8498;52.516;13.790;2023-04-10T09:36:23;101964.84;;;14.73;67.17
17781;BME280;8498;52.516;13.790;2023-04-10T09:41:52;101944.00;;;15.17;67.71
17781;BME280;8498;52.516;13.790;2023-04-10T09:47:22;101939.38;;;15.59;63.18
17781;BME280;8498;52.516;13.790;2023-04-10T09:52:44;101935.97;;;15.82;62.39
17781;BME280;8498;52.516;13.790;2023-04-10T09:58:07;101917.19;;;16.07;60.32
17781;BME280;8498;52.516;13.790;2023-04-10T10:03:30;101915.03;;;16.00;59.52
17781;BME280;8498;52.516;13.790;2023-04-10T10:08:52;101913.41;;;16.23;59.60
17781;BME280;8498;52.516;13.790;2023-04-10T10:14:17;101904.97;;;17.00;57.62
17781;BME280;8498;52.516;13.790;2023-04-10T10:20:03;101894.72;;;17.05;56.30
17781;BME280;8498;52.516;13.790;2023-04-10T10:25:26;101893.69;;;17.76;55.48
17781;BME280;8498;52.516;13.790;2023-04-10T10:30:51;101881.38;;;17.96;53.92
17781;BME280;8498;52.516;13.790;2023-04-10T10:36:15;101880.84;;;18.36;52.99
17781;BME280;8498;52.516;13.790;2023-04-10T10:47:21;101857.91;;;18.52;51.82
17781;BME280;8498;52.516;13.790;2023-04-10T10:52:54;101847.91;;;18.86;51.81
17781;BME280;8498;52.516;13.790;2023-04-10T10:58:45;101837.66;;;19.22;50.28
17781;BME280;8498;52.516;13.790;2023-04-10T11:04:42;101817.16;;;19.30;49.65
17781;BME280;8498;52.516;13.790;2023-04-10T11:10:06;101818.34;;;19.17;50.19
17781;BME280;8498;52.516;13.790;2023-04-10T11:15:29;101809.56;;;19.75;48.53
17781;BME280;8498;52.516;13.790;2023-04-10T11:31:59;101797.06;;;17.64;52.55
17781;BME280;8498;52.516;13.790;2023-04-10T11:37:22;101789.72;;;17.66;53.93
17781;BME280;8498;52.516;13.790;2023-04-10T11:42:45;101780.63;;;18.00;52.62
17781;BME280;8498;52.516;13.790;2023-04-10T11:48:09;101784.56;;;18.39;52.18
17781;BME280;8498;52.516;13.790;2023-04-10T11:53:31;101773.47;;;19.06;51.67
17781;BME280;8498;52.516;13.790;2023-04-10T11:58:53;101753.50;;;19.39;50.35
17781;BME280;8498;52.516;13.790;2023-04-10T12:04:18;101750.31;;;19.24;50.10
17781;BME280;8498;52.516;13.790;2023-04-10T12:09:41;101737.41;;;18.56;50.64
17781;BME280;8498;52.516;13.790;2023-04-10T12:15:24;101733.22;;;19.04;50.13
17781;BME280;8498;52.516;13.790;2023-04-10T12:20:47;101722.03;;;19.39;49.80
17781;BME280;8498;52.516;13.790;2023-04-10T12:26:14;101713.63;;;19.02;50.28
17781;BME280;8498;52.516;13.790;2023-04-10T12:31:37;101712.47;;;19.26;51.69
17781;BME280;8498;52.516;13.790;2023-04-10T12:37:00;101708.31;;;20.02;49.90
17781;BME280;8498;52.516;13.790;2023-04-10T12:42:24;101696.47;;;19.74;48.84
17781;BME280;8498;52.516;13.790;2023-04-10T12:47:50;101693.25;;;19.90;49.60
17781;BME280;8498;52.516;13.790;2023-04-10T12:53:13;101685.00;;;19.72;48.80
17781;BME280;8498;52.516;13.790;2023-04-10T12:58:36;101679.63;;;20.30;47.89
17781;BME280;8498;52.516;13.790;2023-04-10T13:03:59;101662.31;;;20.03;47.26
17781;BME280;8498;52.516;13.790;2023-04-10T13:09:24;101652.94;;;20.36;47.50
17781;BME280;8498;52.516;13.790;2023-04-10T13:14:46;101631.69;;;21.07;45.83
17781;BME280;8498;52.516;13.790;2023-04-10T13:20:10;101620.69;;;21.46;44.62
17781;BME280;8498;52.516;13.790;2023-04-10T13:25:36;101607.03;;;21.65;41.18
17781;BME280;8498;52.516;13.790;2023-04-10T13:31:00;101605.16;;;20.66;43.61
17781;BME280;8498;52.516;13.790;2023-04-10T13:36:24;101592.50;;;20.94;42.07
17781;BME280;8498;52.516;13.790;2023-04-10T13:41:47;101593.53;;;20.46;43.53
17781;BME280;8498;52.516;13.790;2023-04-10T13:47:10;101575.16;;;20.96;42.81
17781;BME280;8498;52.516;13.790;2023-04-10T13:52:32;101571.84;;;20.75;42.65
17781;BME280;8498;52.516;13.790;2023-04-10T13:57:54;101563.66;;;20.94;42.17
17781;BME280;8498;52.516;13.790;2023-04-10T14:03:17;101542.44;;;20.72;42.54
17781;BME280;8498;52.516;13.790;2023-04-10T14:08:39;101532.19;;;21.48;42.39
17781;BME280;8498;52.516;13.790;2023-04-10T14:14:02;101540.91;;;21.14;42.92
17781;BME280;8498;52.516;13.790;2023-04-10T14:19:24;101529.03;;;21.07;43.65
17781;BME280;8498;52.516;13.790;2023-04-10T14:24:47;101535.84;;;20.47;44.19
17781;BME280;8498;52.516;13.790;2023-04-10T14:30:11;101521.25;;;20.40;44.57
17781;BME280;8498;52.516;13.790;2023-04-10T14:35:33;101515.00;;;20.67;43.76
17781;BME280;8498;52.516;13.790;2023-04-10T14:40:56;101508.53;;;20.13;44.63
17781;BME280;8498;52.516;13.790;2023-04-10T14:46:18;101507.09;;;20.09;45.47
17781;BME280;8498;52.516;13.790;2023-04-10T14:51:42;101494.78;;;19.97;45.30
17781;BME280;8498;52.516;13.790;2023-04-10T14:57:04;101482.22;;;19.68;45.29
17781;BME280;8498;52.516;13.790;2023-04-10T15:02:27;101480.06;;;19.24;46.18
17781;BME280;8498;52.516;13.790;2023-04-10T15:07:51;101458.78;;;19.78;44.71
17781;BME280;8498;52.516;13.790;2023-04-10T15:13:13;101456.28;;;20.14;44.72
17781;BME280;8498;52.516;13.790;2023-04-10T15:18:36;101443.72;;;19.86;43.85
17781;BME280;8498;52.516;13.790;2023-04-10T15:23:59;101433.81;;;19.76;45.16
17781;BME280;8498;52.516;13.790;2023-04-10T15:29:22;101436.09;;;19.42;44.84
17781;BME280;8498;52.516;13.790;2023-04-10T15:34:44;101422.47;;;18.77;45.10
17781;BME280;8498;52.516;13.790;2023-04-10T15:40:07;101412.84;;;18.74;45.07
17781;BME280;8498;52.516;13.790;2023-04-10T15:45:31;101408.31;;;18.75;44.24
17781;BME280;8498;52.516;13.790;2023-04-10T15:50:54;101395.69;;;18.85;44.54
17781;BME280;8498;52.516;13.790;2023-04-10T15:56:16;101375.16;;;18.74;44.81
17781;BME280;8498;52.516;13.790;2023-04-10T16:01:38;101372.84;;;18.60;44.68
17781;BME280;8498;52.516;13.790;2023-04-10T16:07:01;101358.63;;;18.39;44.39
17781;BME280;8498;52.516;13.790;2023-04-10T16:12:24;101353.09;;;18.30;44.35
17781;BME280;8498;52.516;13.790;2023-04-10T16:17:46;101338.88;;;18.09;44.81
17781;BME280;8498;52.516;13.790;2023-04-10T16:23:09;101325.97;;;18.03;46.19
17781;BME280;8498;52.516;13.790;2023-04-10T16:28:31;101320.13;;;17.88;46.65
17781;BME280;8498;52.516;13.790;2023-04-10T16:33:54;101314.84;;;17.77;46.09
17781;BME280;8498;52.516;13.790;2023-04-10T16:39:16;101297.44;;;17.51;45.90
17781;BME280;8498;52.516;13.790;2023-04-10T16:44:39;101295.38;;;17.34;46.09
17781;BME280;8498;52.516;13.790;2023-04-10T16:50:02;101294.47;;;17.23;46.88
17781;BME280;8498;52.516;13.790;2023-04-10T16:55:24;101285.78;;;17.10;46.79
17781;BME280;8498;52.516;13.790;2023-04-10T17:00:47;101278.66;;;17.00;46.92
17781;BME280;8498;52.516;13.790;2023-04-10T17:06:09;101267.44;;;16.95;47.02
17781;BME280;8498;52.516;13.790;2023-04-10T17:11:32;101272.16;;;16.81;47.44
17781;BME280;8498;52.516;13.790;2023-04-10T17:16:54;101255.03;;;16.62;47.94
17781;BME280;8498;52.516;13.790;2023-04-10T17:22:17;101256.00;;;16.40;48.73
17781;BME280;8498;52.516;13.790;2023-04-10T17:27:41;101245.91;;;16.21;48.22
17781;BME280;8498;52.516;13.790;2023-04-10T17:33:04;101236.47;;;16.06;48.08
17781;BME280;8498;52.516;13.790;2023-04-10T17:38:26;101227.13;;;15.89;48.77
17781;BME280;8498;52.516;13.790;2023-04-10T17:43:49;101224.00;;;15.62;49.32
17781;BME280;8498;52.516;13.790;2023-04-10T17:49:11;101215.84;;;15.41;49.68
17781;BME280;8498;52.516;13.790;2023-04-10T17:54:34;101199.88;;;15.28;49.76
17781;BME280;8498;52.516;13.790;2023-04-10T17:59:56;101198.34;;;15.26;49.76
17781;BME280;8498;52.516;13.790;2023-04-10T18:05:19;101195.66;;;15.15;50.16
17781;BME280;8498;52.516;13.790;2023-04-10T18:10:41;101186.53;;;14.95;50.48
17781;BME280;8498;52.516;13.790;2023-04-10T18:16:04;101190.50;;;14.78;51.02
17781;BME280;8498;52.516;13.790;2023-04-10T18:21:26;101188.91;;;14.76;51.21
17781;BME280;8498;52.516;13.790;2023-04-10T18:26:49;101174.19;;;14.70;51.04
17781;BME280;8498;52.516;13.790;2023-04-10T18:32:11;101170.88;;;14.55;51.62
17781;BME280;8498;52.516;13.790;2023-04-10T18:37:34;101168.69;;;14.49;51.25
17781;BME280;8498;52.516;13.790;2023-04-10T18:42:56;101171.56;;;14.46;51.40
17781;BME280;8498;52.516;13.790;2023-04-10T18:48:19;101167.94;;;14.47;51.45
17781;BME280;8498;52.516;13.790;2023-04-10T18:53:42;101159.84;;;14.36;51.85
17781;BME280;8498;52.516;13.790;2023-04-10T18:59:04;101156.41;;;14.23;51.80
17781;BME280;8498;52.516;13.790;2023-04-10T19:04:27;101158.38;;;14.21;52.42
17781;BME280;8498;52.516;13.790;2023-04-10T19:09:49;101154.53;;;14.01;53.30
17781;BME280;8498;52.516;13.790;2023-04-10T19:15:12;101150.69;;;13.92;53.77
17781;BME280;8498;52.516;13.790;2023-04-10T19:20:36;101139.84;;;13.83;53.86
17781;BME280;8498;52.516;13.790;2023-04-10T19:26:13;101126.38;;;13.84;53.95
17781;BME280;8498;52.516;13.790;2023-04-10T19:31:35;101117.03;;;13.79;53.94
17781;BME280;8498;52.516;13.790;2023-04-10T19:36:58;101105.59;;;13.77;54.21
17781;BME280;8498;52.516;13.790;2023-04-10T19:42:20;101101.59;;;13.82;53.40
17781;BME280;8498;52.516;13.790;2023-04-10T19:47:43;101087.41;;;13.82;53.52
17781;BME280;8498;52.516;13.790;2023-04-10T19:53:05;101078.16;;;13.75;53.69
17781;BME280;8498;52.516;13.790;2023-04-10T19:58:28;101087.50;;;13.69;53.64
17781;BME280;8498;52.516;13.790;2023-04-10T20:04:02;101071.16;;;13.61;53.43
17781;BME280;8498;52.516;13.790;2023-04-10T20:09:24;101066.28;;;13.55;53.91
17781;BME280;8498;52.516;13.790;2023-04-10T20:14:47;101058.63;;;13.50;53.64
17781;BME280;8498;52.516;13.790;2023-04-10T20:20:10;101046.91;;;13.40;53.85
17781;BME280;8498;52.516;13.790;2023-04-10T20:25:34;101041.19;;;13.34;53.75
17781;BME280;8498;52.516;13.790;2023-04-10T20:30:57;101030.03;;;13.29;54.29
17781;BME280;8498;52.516;13.790;2023-04-10T20:36:19;101020.75;;;13.21;54.05
17781;BME280;8498;52.516;13.790;2023-04-10T20:41:42;101001.47;;;13.18;54.37
17781;BME280;8498;52.516;13.790;2023-04-10T20:47:04;101006.06;;;13.03;54.85
17781;BME280;8498;52.516;13.790;2023-04-10T20:52:27;100997.78;;;12.95;54.80
17781;BME280;8498;52.516;13.790;2023-04-10T20:57:50;100992.66;;;12.92;54.66
17781;BME280;8498;52.516;13.790;2023-04-10T21:03:12;100975.16;;;12.88;54.55
17781;BME280;8498;52.516;13.790;2023-04-10T21:08:35;100978.00;;;12.74;54.76
17781;BME280;8498;52.516;13.790;2023-04-10T21:13:57;100969.56;;;12.80;54.20
17781;BME280;8498;52.516;13.790;2023-04-10T21:19:19;100973.94;;;12.81;53.65
17781;BME280;8498;52.516;13.790;2023-04-10T21:24:42;100979.16;;;12.82;53.25
17781;BME280;8498;52.516;13.790;2023-04-10T21:30:04;100977.72;;;12.90;52.82
17781;BME280;8498;52.516;13.790;2023-04-10T21:35:27;100977.44;;;12.81;53.25
17781;BME280;8498;52.516;13.790;2023-04-10T21:40:50;100967.13;;;12.77;53.37
17781;BME280;8498;52.516;13.790;2023-04-10T21:46:13;100955.47;;;12.78;52.86
17781;BME280;8498;52.516;13.790;2023-04-10T21:51:36;100947.94;;;12.72;52.71
17781;BME280;8498;52.516;13.790;2023-04-10T21:56:58;100941.88;;;12.70;52.79
17781;BME280;8498;52.516;13.790;2023-04-10T22:02:21;100939.06;;;12.84;52.63
17781;BME280;8498;52.516;13.790;2023-04-10T22:07:43;100941.25;;;12.90;52.11
17781;BME280;8498;52.516;13.790;2023-04-10T22:13:06;100928.88;;;12.89;52.44
17781;BME280;8498;52.516;13.790;2023-04-10T22:18:31;100920.28;;;12.85;52.31
17781;BME280;8498;52.516;13.790;2023-04-10T22:23:53;100910.91;;;12.80;51.95
17781;BME280;8498;52.516;13.790;2023-04-10T22:29:15;100895.44;;;12.85;52.06
17781;BME280;8498;52.516;13.790;2023-04-10T22:34:38;100874.31;;;12.82;52.14
17781;BME280;8498;52.516;13.790;2023-04-10T22:40:00;100857.94;;;12.75;51.95
17781;BME280;8498;52.516;13.790;2023-04-10T22:45:23;100848.63;;;12.81;51.97
17781;BME280;8498;52.516;13.790;2023-04-10T22:50:45;100834.28;;;12.71;51.64
17781;BME280;8498;52.516;13.790;2023-04-10T22:56:09;100836.72;;;12.74;51.91
17781;BME280;8498;52.516;13.790;2023-04-10T23:01:31;100836.94;;;12.71;51.81
17781;BME280;8498;52.516;13.790;2023-04-10T23:06:54;100819.03;;;12.73;52.10
17781;BME280;8498;52.516;13.790;2023-04-10T23:12:17;100809.09;;;12.75;51.79
17781;BME280;8498;52.516;13.790;2023-04-10T23:17:39;100799.75;;;12.69;51.98
17781;BME280;8498;52.516;13.790;2023-04-10T23:23:02;100799.13;;;12.66;51.91
17781;BME280;8498;52.516;13.790;2023-04-10T23:28:25;100798.03;;;12.68;52.15
17781;BME280;8498;52.516;13.790;2023-04-10T23:33:47;100774.63;;;12.61;52.38
17781;BME280;8498;52.516;13.790;2023-04-10T23:39:09;100771.59;;;12.54;52.52
17781;BME280;8498;52.516;13.790;2023-04-10T23:44:32;100760.94;;;12.54;52.63
17781;BME280;8498;52.516;13.790;2023-04-10T23:49:54;100746.75;;;12.54;52.33
17781;BME280;8498;52.516;13.790;2023-04-10T23:55:17;100732.91;;;12.48;52.88
